sensor_id;sensor_type;location;lat;lon;timestamp;P1;durP1;ratioP1;P2;durP2;ratioP2
4521;SDS011;2273;48.464;11.926;2023-05-16T00:01:42;13.40;;;8.57;;
4521;SDS011;2273;48.464;11.926;2023-05-16T00:04:07;10.50;;;7.27;;
4521;SDS011;2273;48.464;11.926;2023-05-16T00:06:33;10.17;;;7.93;;
4521;SDS011;2273;48.464;11.926;2023-05-16T00:09:00;12.47;;;7.60;;
4521;SDS011;2273;48.464;11.926;2023-05-16T00:11:25;10.40;;;7.83;;
4521;SDS011;2273;48.464;11.926;2023-05-16T00:13:51;12.57;;;7.97;;
4521;SDS011;2273;48.464;11.926;2023-05-16T00:16:17;18.87;;;7.73;;
4521;SDS011;2273;48.464;11.926;2023-05-16T00:18:45;10.70;;;7.87;;
4521;SDS011;2273;48.464;11.926;2023-05-16T00:21:11;12.00;;;7.57;;
4521;SDS011;2273;48.464;11.926;2023-05-16T00:23:36;14.53;;;8.70;;
4521;SDS011;2273;48.464;11.926;2023-05-16T00:26:02;10.40;;;8.20;;
4521;SDS011;2273;48.464;11.926;2023-05-16T00:28:28;9.40;;;7.73;;
4521;SDS011;2273;48.464;11.926;2023-05-16T00:30:56;8.87;;;7.67;;
4521;SDS011;2273;48.464;11.926;2023-05-16T00:33:21;20.90;;;8.57;;
4521;SDS011;2273;48.464;11.926;2023-05-16T00:35:47;15.83;;;8.43;;
4521;SDS011;2273;48.464;11.926;2023-05-16T00:38:13;10.33;;;8.83;;
4521;SDS011;2273;48.464;11.926;2023-05-16T00:40:38;10.30;;;8.27;;
4521;SDS011;2273;48.464;11.926;2023-05-16T00:43:04;10.80;;;7.97;;
4521;SDS011;2273;48.464;11.926;2023-05-16T00:45:29;13.87;;;8.40;;
4521;SDS011;2273;48.464;11.926;2023-05-16T00:47:55;11.17;;;8.33;;
4521;SDS011;2273;48.464;11.926;2023-05-16T00:50:20;10.07;;;8.00;;
4521;SDS011;2273;48.464;11.926;2023-05-16T00:52:46;14.90;;;8.33;;
4521;SDS011;2273;48.464;11.926;2023-05-16T00:55:12;11.97;;;7.77;;
4521;SDS011;2273;48.464;11.926;2023-05-16T00:57:39;10.70;;;7.97;;
4521;SDS011;2273;48.464;11.926;2023-05-16T01:00:05;14.53;;;8.67;;
4521;SDS011;2273;48.464;11.926;2023-05-16T01:02:34;14.70;;;10.03;;
4521;SDS011;2273;48.464;11.926;2023-05-16T01:05:00;14.70;;;8.30;;
4521;SDS011;2273;48.464;11.926;2023-05-16T01:07:26;11.20;;;8.20;;
4521;SDS011;2273;48.464;11.926;2023-05-16T01:09:51;11.20;;;8.23;;
4521;SDS011;2273;48.464;11.926;2023-05-16T01:14:56;14.43;;;10.10;;
4521;SDS011;2273;48.464;11.926;2023-05-16T01:17:41;12.20;;;8.93;;
4521;SDS011;2273;48.464;11.926;2023-05-16T01:26:25;10.70;;;8.20;;
4521;SDS011;2273;48.464;11.926;2023-05-16T01:28:51;12.53;;;8.70;;
4521;SDS011;2273;48.464;11.926;2023-05-16T01:31:17;12.53;;;9.00;;
4521;SDS011;2273;48.464;11.926;2023-05-16T01:33:43;13.43;;;9.40;;
4521;SDS011;2273;48.464;11.926;2023-05-16T01:38:58;11.37;;;9.03;;
4521;SDS011;2273;48.464;11.926;2023-05-16T01:44:30;11.77;;;9.53;;
4521;SDS011;2273;48.464;11.926;2023-05-16T01:47:02;18.83;;;9.80;;
4521;SDS011;2273;48.464;11.926;2023-05-16T01:52:23;12.50;;;9.50;;
4521;SDS011;2273;48.464;11.926;2023-05-16T01:54:53;13.50;;;10.10;;
4521;SDS011;2273;48.464;11.926;2023-05-16T01:57:22;12.40;;;9.60;;
4521;SDS011;2273;48.464;11.926;2023-05-16T01:59:49;11.20;;;9.10;;
4521;SDS011;2273;48.464;11.926;2023-05-16T02:02:17;14.60;;;9.50;;
4521;SDS011;2273;48.464;11.926;2023-05-16T02:04:42;13.77;;;10.47;;
4521;SDS011;2273;48.464;11.926;2023-05-16T02:07:08;13.67;;;9.70;;
4521;SDS011;2273;48.464;11.926;2023-05-16T02:09:33;15.00;;;9.37;;
4521;SDS011;2273;48.464;11.926;2023-05-16T02:11:59;13.40;;;9.83;;
4521;SDS011;2273;48.464;11.926;2023-05-16T02:14:25;12.07;;;9.80;;
4521;SDS011;2273;48.464;11.926;2023-05-16T02:16:50;12.80;;;9.67;;
4521;SDS011;2273;48.464;11.926;2023-05-16T02:19:16;12.47;;;10.03;;
4521;SDS011;2273;48.464;11.926;2023-05-16T02:21:41;12.87;;;9.90;;
4521;SDS011;2273;48.464;11.926;2023-05-16T02:24:06;14.50;;;9.90;;
4521;SDS011;2273;48.464;11.926;2023-05-16T02:26:32;12.80;;;9.70;;
4521;SDS011;2273;48.464;11.926;2023-05-16T02:28:57;14.33;;;9.97;;
4521;SDS011;2273;48.464;11.926;2023-05-16T02:31:26;11.83;;;9.30;;
4521;SDS011;2273;48.464;11.926;2023-05-16T02:33:56;15.03;;;9.73;;
4521;SDS011;2273;48.464;11.926;2023-05-16T02:36:22;12.30;;;9.53;;
4521;SDS011;2273;48.464;11.926;2023-05-16T02:38:48;11.97;;;9.20;;
4521;SDS011;2273;48.464;11.926;2023-05-16T02:41:13;12.27;;;10.07;;
4521;SDS011;2273;48.464;11.926;2023-05-16T02:43:40;14.33;;;9.43;;
4521;SDS011;2273;48.464;11.926;2023-05-16T02:46:24;14.03;;;10.10;;
4521;SDS011;2273;48.464;11.926;2023-05-16T02:48:51;13.60;;;10.00;;
4521;SDS011;2273;48.464;11.926;2023-05-16T02:51:19;12.63;;;10.40;;
4521;SDS011;2273;48.464;11.926;2023-05-16T02:53:45;13.50;;;10.47;;
4521;SDS011;2273;48.464;11.926;2023-05-16T02:56:10;17.07;;;10.90;;
4521;SDS011;2273;48.464;11.926;2023-05-16T02:58:35;12.53;;;10.07;;
4521;SDS011;2273;48.464;11.926;2023-05-16T03:01:01;16.73;;;10.90;;
4521;SDS011;2273;48.464;11.926;2023-05-16T03:03:26;18.13;;;11.20;;
4521;SDS011;2273;48.464;11.926;2023-05-16T03:05:52;17.40;;;11.87;;
4521;SDS011;2273;48.464;11.926;2023-05-16T03:08:17;18.43;;;11.57;;
4521;SDS011;2273;48.464;11.926;2023-05-16T03:10:43;16.50;;;11.27;;
4521;SDS011;2273;48.464;11.926;2023-05-16T03:13:08;13.97;;;11.07;;
4521;SDS011;2273;48.464;11.926;2023-05-16T03:15:33;16.30;;;12.60;;
4521;SDS011;2273;48.464;11.926;2023-05-16T03:17:59;15.50;;;12.10;;
4521;SDS011;2273;48.464;11.926;2023-05-16T03:20:25;13.80;;;10.93;;
4521;SDS011;2273;48.464;11.926;2023-05-16T03:22:50;15.40;;;11.90;;
4521;SDS011;2273;48.464;11.926;2023-05-16T03:25:16;13.93;;;9.97;;
4521;SDS011;2273;48.464;11.926;2023-05-16T03:27:41;14.73;;;11.50;;
4521;SDS011;2273;48.464;11.926;2023-05-16T03:30:07;17.53;;;12.27;;
4521;SDS011;2273;48.464;11.926;2023-05-16T03:32:33;16.83;;;11.10;;
4521;SDS011;2273;48.464;11.926;2023-05-16T03:34:58;24.60;;;12.83;;
4521;SDS011;2273;48.464;11.926;2023-05-16T03:37:25;15.70;;;12.03;;
4521;SDS011;2273;48.464;11.926;2023-05-16T03:39:50;19.70;;;13.00;;
4521;SDS011;2273;48.464;11.926;2023-05-16T03:42:15;18.33;;;12.03;;
4521;SDS011;2273;48.464;11.926;2023-05-16T03:44:42;18.10;;;12.67;;
4521;SDS011;2273;48.464;11.926;2023-05-16T03:47:08;17.40;;;12.50;;
4521;SDS011;2273;48.464;11.926;2023-05-16T03:49:33;24.43;;;13.40;;
4521;SDS011;2273;48.464;11.926;2023-05-16T03:51:58;26.70;;;14.03;;
4521;SDS011;2273;48.464;11.926;2023-05-16T03:54:24;15.53;;;11.67;;
4521;SDS011;2273;48.464;11.926;2023-05-16T03:56:49;16.67;;;12.50;;
4521;SDS011;2273;48.464;11.926;2023-05-16T03:59:15;17.87;;;12.03;;
4521;SDS011;2273;48.464;11.926;2023-05-16T04:01:40;16.80;;;12.43;;
4521;SDS011;2273;48.464;11.926;2023-05-16T04:04:06;16.93;;;11.27;;
4521;SDS011;2273;48.464;11.926;2023-05-16T04:06:31;16.27;;;12.80;;
4521;SDS011;2273;48.464;11.926;2023-05-16T04:08:58;20.53;;;11.70;;
4521;SDS011;2273;48.464;11.926;2023-05-16T04:11:23;16.00;;;11.53;;
4521;SDS011;2273;48.464;11.926;2023-05-16T04:13:50;18.07;;;10.40;;
4521;SDS011;2273;48.464;11.926;2023-05-16T04:16:16;16.70;;;10.80;;
4521;SDS011;2273;48.464;11.926;2023-05-16T04:18:41;15.17;;;11.43;;
4521;SDS011;2273;48.464;11.926;2023-05-16T04:21:07;16.80;;;12.13;;
4521;SDS011;2273;48.464;11.926;2023-05-16T04:23:34;15.50;;;11.23;;
4521;SDS011;2273;48.464;11.926;2023-05-16T04:26:00;19.23;;;12.57;;
4521;SDS011;2273;48.464;11.926;2023-05-16T04:28:26;18.40;;;13.50;;
4521;SDS011;2273;48.464;11.926;2023-05-16T04:30:51;21.47;;;13.50;;
4521;SDS011;2273;48.464;11.926;2023-05-16T04:33:17;17.90;;;12.57;;
4521;SDS011;2273;48.464;11.926;2023-05-16T04:35:42;14.87;;;11.90;;
4521;SDS011;2273;48.464;11.926;2023-05-16T04:38:08;17.60;;;12.43;;
4521;SDS011;2273;48.464;11.926;2023-05-16T04:40:33;15.37;;;11.93;;
4521;SDS011;2273;48.464;11.926;2023-05-16T04:42:59;16.23;;;12.50;;
4521;SDS011;2273;48.464;11.926;2023-05-16T04:45:24;16.80;;;12.67;;
4521;SDS011;2273;48.464;11.926;2023-05-16T04:47:50;16.37;;;11.00;;
4521;SDS011;2273;48.464;11.926;2023-05-16T04:50:16;12.47;;;10.07;;
4521;SDS011;2273;48.464;11.926;2023-05-16T04:52:42;15.80;;;11.90;;
4521;SDS011;2273;48.464;11.926;2023-05-16T04:55:07;17.13;;;12.80;;
4521;SDS011;2273;48.464;11.926;2023-05-16T04:57:33;16.07;;;11.93;;
4521;SDS011;2273;48.464;11.926;2023-05-16T04:59:59;17.07;;;11.50;;
4521;SDS011;2273;48.464;11.926;2023-05-16T05:02:24;18.93;;;11.90;;
4521;SDS011;2273;48.464;11.926;2023-05-16T05:04:50;17.00;;;13.17;;
4521;SDS011;2273;48.464;11.926;2023-05-16T05:07:16;18.57;;;13.23;;
4521;SDS011;2273;48.464;11.926;2023-05-16T05:09:41;14.70;;;10.90;;
4521;SDS011;2273;48.464;11.926;2023-05-16T05:12:08;16.13;;;12.23;;
4521;SDS011;2273;48.464;11.926;2023-05-16T05:14:33;14.80;;;11.00;;
4521;SDS011;2273;48.464;11.926;2023-05-16T05:16:59;17.60;;;11.80;;
4521;SDS011;2273;48.464;11.926;2023-05-16T05:19:25;18.17;;;11.83;;
4521;SDS011;2273;48.464;11.926;2023-05-16T05:21:51;17.30;;;12.90;;
4521;SDS011;2273;48.464;11.926;2023-05-16T05:24:16;16.73;;;12.20;;
4521;SDS011;2273;48.464;11.926;2023-05-16T05:26:42;13.50;;;10.20;;
4521;SDS011;2273;48.464;11.926;2023-05-16T05:29:07;19.37;;;13.30;;
4521;SDS011;2273;48.464;11.926;2023-05-16T05:31:32;19.23;;;14.40;;
4521;SDS011;2273;48.464;11.926;2023-05-16T05:33:58;17.27;;;12.83;;
4521;SDS011;2273;48.464;11.926;2023-05-16T05:36:25;18.43;;;13.47;;
4521;SDS011;2273;48.464;11.926;2023-05-16T05:38:50;16.53;;;12.00;;
4521;SDS011;2273;48.464;11.926;2023-05-16T05:41:16;20.40;;;12.80;;
4521;SDS011;2273;48.464;11.926;2023-05-16T05:43:41;15.63;;;13.10;;
4521;SDS011;2273;48.464;11.926;2023-05-16T05:46:07;18.30;;;13.20;;
4521;SDS011;2273;48.464;11.926;2023-05-16T05:48:32;15.40;;;11.93;;
4521;SDS011;2273;48.464;11.926;2023-05-16T05:50:58;16.63;;;12.70;;
4521;SDS011;2273;48.464;11.926;2023-05-16T05:53:23;17.53;;;12.50;;
4521;SDS011;2273;48.464;11.926;2023-05-16T05:55:49;17.80;;;11.57;;
4521;SDS011;2273;48.464;11.926;2023-05-16T05:58:14;16.60;;;12.47;;
4521;SDS011;2273;48.464;11.926;2023-05-16T06:00:39;18.47;;;12.77;;
4521;SDS011;2273;48.464;11.926;2023-05-16T06:03:05;17.83;;;13.00;;
4521;SDS011;2273;48.464;11.926;2023-05-16T06:05:30;15.57;;;11.90;;
4521;SDS011;2273;48.464;11.926;2023-05-16T06:07:56;13.93;;;11.20;;
4521;SDS011;2273;48.464;11.926;2023-05-16T06:10:21;16.17;;;12.47;;
4521;SDS011;2273;48.464;11.926;2023-05-16T06:12:47;16.27;;;12.27;;
4521;SDS011;2273;48.464;11.926;2023-05-16T06:15:12;16.10;;;12.00;;
4521;SDS011;2273;48.464;11.926;2023-05-16T06:17:38;15.67;;;12.27;;
4521;SDS011;2273;48.464;11.926;2023-05-16T06:20:03;16.53;;;13.00;;
4521;SDS011;2273;48.464;11.926;2023-05-16T06:22:29;19.23;;;12.33;;
4521;SDS011;2273;48.464;11.926;2023-05-16T06:24:55;25.60;;;13.10;;
4521;SDS011;2273;48.464;11.926;2023-05-16T06:27:20;16.80;;;12.83;;
4521;SDS011;2273;48.464;11.926;2023-05-16T06:29:46;17.73;;;13.30;;
4521;SDS011;2273;48.464;11.926;2023-05-16T06:32:11;24.00;;;13.70;;
4521;SDS011;2273;48.464;11.926;2023-05-16T06:34:37;16.43;;;12.53;;
4521;SDS011;2273;48.464;11.926;2023-05-16T06:37:02;16.80;;;12.87;;
4521;SDS011;2273;48.464;11.926;2023-05-16T06:39:28;18.70;;;11.97;;
4521;SDS011;2273;48.464;11.926;2023-05-16T06:41:53;19.43;;;13.17;;
4521;SDS011;2273;48.464;11.926;2023-05-16T06:44:21;18.10;;;13.83;;
4521;SDS011;2273;48.464;11.926;2023-05-16T06:46:47;17.10;;;13.20;;
4521;SDS011;2273;48.464;11.926;2023-05-16T06:49:12;17.83;;;12.77;;
4521;SDS011;2273;48.464;11.926;2023-05-16T06:51:38;19.30;;;13.67;;
4521;SDS011;2273;48.464;11.926;2023-05-16T06:54:04;20.63;;;12.80;;
4521;SDS011;2273;48.464;11.926;2023-05-16T06:56:29;17.13;;;12.70;;
4521;SDS011;2273;48.464;11.926;2023-05-16T06:58:55;15.00;;;12.10;;
4521;SDS011;2273;48.464;11.926;2023-05-16T07:01:21;20.23;;;13.27;;
4521;SDS011;2273;48.464;11.926;2023-05-16T07:03:46;15.80;;;12.70;;
4521;SDS011;2273;48.464;11.926;2023-05-16T07:06:11;17.60;;;13.20;;
4521;SDS011;2273;48.464;11.926;2023-05-16T07:08:37;20.60;;;13.40;;
4521;SDS011;2273;48.464;11.926;2023-05-16T07:11:02;15.30;;;12.87;;
4521;SDS011;2273;48.464;11.926;2023-05-16T07:13:28;18.57;;;14.00;;
4521;SDS011;2273;48.464;11.926;2023-05-16T07:15:53;15.40;;;11.67;;
4521;SDS011;2273;48.464;11.926;2023-05-16T07:18:18;15.40;;;12.20;;
4521;SDS011;2273;48.464;11.926;2023-05-16T07:20:44;16.90;;;13.03;;
4521;SDS011;2273;48.464;11.926;2023-05-16T07:23:10;17.87;;;12.93;;
4521;SDS011;2273;48.464;11.926;2023-05-16T07:25:35;17.10;;;12.03;;
4521;SDS011;2273;48.464;11.926;2023-05-16T07:28:01;16.83;;;12.50;;
4521;SDS011;2273;48.464;11.926;2023-05-16T07:30:26;15.80;;;12.70;;
4521;SDS011;2273;48.464;11.926;2023-05-16T07:32:52;16.30;;;12.27;;
4521;SDS011;2273;48.464;11.926;2023-05-16T07:35:18;14.37;;;11.70;;
4521;SDS011;2273;48.464;11.926;2023-05-16T07:37:43;15.63;;;12.47;;
4521;SDS011;2273;48.464;11.926;2023-05-16T07:40:09;15.90;;;13.40;;
4521;SDS011;2273;48.464;11.926;2023-05-16T07:42:35;17.17;;;13.10;;
4521;SDS011;2273;48.464;11.926;2023-05-16T07:45:00;21.73;;;12.93;;
4521;SDS011;2273;48.464;11.926;2023-05-16T07:47:26;16.40;;;12.63;;
4521;SDS011;2273;48.464;11.926;2023-05-16T07:49:52;21.03;;;13.67;;
4521;SDS011;2273;48.464;11.926;2023-05-16T07:52:17;16.33;;;13.23;;
4521;SDS011;2273;48.464;11.926;2023-05-16T07:54:44;19.10;;;12.73;;
4521;SDS011;2273;48.464;11.926;2023-05-16T07:57:10;17.60;;;12.70;;
4521;SDS011;2273;48.464;11.926;2023-05-16T07:59:35;20.67;;;12.90;;
4521;SDS011;2273;48.464;11.926;2023-05-16T08:02:01;19.13;;;14.60;;
4521;SDS011;2273;48.464;11.926;2023-05-16T08:04:26;23.00;;;14.77;;
4521;SDS011;2273;48.464;11.926;2023-05-16T08:06:52;21.53;;;14.80;;
4521;SDS011;2273;48.464;11.926;2023-05-16T08:09:18;18.40;;;15.47;;
4521;SDS011;2273;48.464;11.926;2023-05-16T08:11:43;16.93;;;13.53;;
4521;SDS011;2273;48.464;11.926;2023-05-16T08:14:10;17.13;;;13.07;;
4521;SDS011;2273;48.464;11.926;2023-05-16T08:16:36;20.97;;;14.57;;
4521;SDS011;2273;48.464;11.926;2023-05-16T08:19:01;24.20;;;15.10;;
4521;SDS011;2273;48.464;11.926;2023-05-16T08:21:26;28.27;;;16.40;;
4521;SDS011;2273;48.464;11.926;2023-05-16T08:23:52;19.77;;;14.10;;
4521;SDS011;2273;48.464;11.926;2023-05-16T08:26:18;20.60;;;15.03;;
4521;SDS011;2273;48.464;11.926;2023-05-16T08:28:43;20.53;;;14.97;;
4521;SDS011;2273;48.464;11.926;2023-05-16T08:31:08;18.70;;;15.20;;
4521;SDS011;2273;48.464;11.926;2023-05-16T08:33:34;20.93;;;14.30;;
4521;SDS011;2273;48.464;11.926;2023-05-16T08:36:00;21.03;;;15.63;;
4521;SDS011;2273;48.464;11.926;2023-05-16T08:38:25;19.57;;;14.97;;
4521;SDS011;2273;48.464;11.926;2023-05-16T08:40:51;20.60;;;15.37;;
4521;SDS011;2273;48.464;11.926;2023-05-16T08:43:16;21.43;;;14.60;;
4521;SDS011;2273;48.464;11.926;2023-05-16T08:45:42;20.60;;;15.90;;
4521;SDS011;2273;48.464;11.926;2023-05-16T08:48:08;19.93;;;15.23;;
4521;SDS011;2273;48.464;11.926;2023-05-16T08:50:34;26.57;;;15.87;;
4521;SDS011;2273;48.464;11.926;2023-05-16T08:53:02;18.87;;;14.87;;
4521;SDS011;2273;48.464;11.926;2023-05-16T08:55:31;25.70;;;15.40;;
4521;SDS011;2273;48.464;11.926;2023-05-16T08:57:57;18.77;;;15.20;;
4521;SDS011;2273;48.464;11.926;2023-05-16T09:00:22;17.10;;;14.60;;
4521;SDS011;2273;48.464;11.926;2023-05-16T09:02:48;19.73;;;15.93;;
4521;SDS011;2273;48.464;11.926;2023-05-16T09:05:14;22.90;;;15.87;;
4521;SDS011;2273;48.464;11.926;2023-05-16T09:07:42;24.70;;;17.07;;
4521;SDS011;2273;48.464;11.926;2023-05-16T09:10:07;21.23;;;16.07;;
4521;SDS011;2273;48.464;11.926;2023-05-16T09:12:33;20.87;;;16.00;;
4521;SDS011;2273;48.464;11.926;2023-05-16T09:15:02;20.03;;;15.63;;
4521;SDS011;2273;48.464;11.926;2023-05-16T09:17:36;16.70;;;14.40;;
4521;SDS011;2273;48.464;11.926;2023-05-16T09:25:20;20.43;;;16.10;;
4521;SDS011;2273;48.464;11.926;2023-05-16T09:27:47;20.33;;;15.90;;
4521;SDS011;2273;48.464;11.926;2023-05-16T09:30:15;19.60;;;15.70;;
4521;SDS011;2273;48.464;11.926;2023-05-16T09:32:44;21.23;;;14.70;;
4521;SDS011;2273;48.464;11.926;2023-05-16T09:35:13;20.00;;;15.50;;
4521;SDS011;2273;48.464;11.926;2023-05-16T09:37:43;26.57;;;15.10;;
4521;SDS011;2273;48.464;11.926;2023-05-16T09:40:12;23.50;;;16.87;;
4521;SDS011;2273;48.464;11.926;2023-05-16T09:42:38;19.63;;;15.70;;
4521;SDS011;2273;48.464;11.926;2023-05-16T09:45:03;18.00;;;14.63;;
4521;SDS011;2273;48.464;11.926;2023-05-16T09:47:29;23.17;;;15.97;;
4521;SDS011;2273;48.464;11.926;2023-05-16T09:49:55;23.37;;;16.63;;
4521;SDS011;2273;48.464;11.926;2023-05-16T09:52:20;20.97;;;16.60;;
4521;SDS011;2273;48.464;11.926;2023-05-16T09:54:46;19.20;;;15.10;;
4521;SDS011;2273;48.464;11.926;2023-05-16T09:57:18;22.87;;;16.57;;
4521;SDS011;2273;48.464;11.926;2023-05-16T09:59:44;23.30;;;16.43;;
4521;SDS011;2273;48.464;11.926;2023-05-16T10:02:09;18.87;;;15.03;;
4521;SDS011;2273;48.464;11.926;2023-05-16T10:04:35;19.50;;;15.63;;
4521;SDS011;2273;48.464;11.926;2023-05-16T10:07:01;19.13;;;14.47;;
4521;SDS011;2273;48.464;11.926;2023-05-16T10:09:28;21.43;;;15.20;;
4521;SDS011;2273;48.464;11.926;2023-05-16T10:11:57;22.43;;;15.07;;
4521;SDS011;2273;48.464;11.926;2023-05-16T10:14:27;24.30;;;14.03;;
4521;SDS011;2273;48.464;11.926;2023-05-16T10:16:52;17.00;;;14.30;;
4521;SDS011;2273;48.464;11.926;2023-05-16T10:19:19;21.70;;;15.73;;
4521;SDS011;2273;48.464;11.926;2023-05-16T10:21:47;19.40;;;14.67;;
4521;SDS011;2273;48.464;11.926;2023-05-16T10:24:17;27.87;;;17.90;;
4521;SDS011;2273;48.464;11.926;2023-05-16T10:26:47;29.07;;;19.87;;
4521;SDS011;2273;48.464;11.926;2023-05-16T10:29:13;22.33;;;16.43;;
4521;SDS011;2273;48.464;11.926;2023-05-16T10:31:39;22.00;;;14.87;;
4521;SDS011;2273;48.464;11.926;2023-05-16T10:34:05;20.77;;;15.73;;
4521;SDS011;2273;48.464;11.926;2023-05-16T10:36:30;28.10;;;13.30;;
4521;SDS011;2273;48.464;11.926;2023-05-16T10:38:56;20.53;;;15.43;;
4521;SDS011;2273;48.464;11.926;2023-05-16T10:41:22;18.40;;;14.37;;
4521;SDS011;2273;48.464;11.926;2023-05-16T10:43:55;25.13;;;14.70;;
4521;SDS011;2273;48.464;11.926;2023-05-16T10:46:22;22.70;;;14.00;;
4521;SDS011;2273;48.464;11.926;2023-05-16T10:48:48;18.23;;;12.60;;
4521;SDS011;2273;48.464;11.926;2023-05-16T10:54:03;18.30;;;14.53;;
4521;SDS011;2273;48.464;11.926;2023-05-16T10:56:36;17.53;;;13.80;;
4521;SDS011;2273;48.464;11.926;2023-05-16T10:59:02;18.17;;;14.47;;
4521;SDS011;2273;48.464;11.926;2023-05-16T11:11:51;22.50;;;15.50;;
4521;SDS011;2273;48.464;11.926;2023-05-16T11:14:22;21.93;;;15.10;;
4521;SDS011;2273;48.464;11.926;2023-05-16T11:19:27;24.97;;;15.97;;
4521;SDS011;2273;48.464;11.926;2023-05-16T11:24:31;17.70;;;13.40;;
4521;SDS011;2273;48.464;11.926;2023-05-16T11:27:00;24.77;;;14.80;;
4521;SDS011;2273;48.464;11.926;2023-05-16T11:29:35;18.63;;;14.77;;
4521;SDS011;2273;48.464;11.926;2023-05-16T11:32:04;18.97;;;14.63;;
4521;SDS011;2273;48.464;11.926;2023-05-16T11:34:30;18.30;;;14.27;;
4521;SDS011;2273;48.464;11.926;2023-05-16T11:36:56;16.83;;;13.57;;
4521;SDS011;2273;48.464;11.926;2023-05-16T11:39:22;20.47;;;14.33;;
4521;SDS011;2273;48.464;11.926;2023-05-16T11:41:50;26.50;;;17.27;;
4521;SDS011;2273;48.464;11.926;2023-05-16T11:44:17;23.57;;;15.77;;
4521;SDS011;2273;48.464;11.926;2023-05-16T11:46:42;19.53;;;14.77;;
4521;SDS011;2273;48.464;11.926;2023-05-16T11:49:08;19.47;;;15.53;;
4521;SDS011;2273;48.464;11.926;2023-05-16T11:51:36;20.03;;;15.60;;
4521;SDS011;2273;48.464;11.926;2023-05-16T11:54:02;18.23;;;14.27;;
4521;SDS011;2273;48.464;11.926;2023-05-16T11:56:29;24.03;;;15.60;;
4521;SDS011;2273;48.464;11.926;2023-05-16T11:58:56;19.70;;;15.00;;
4521;SDS011;2273;48.464;11.926;2023-05-16T12:01:23;17.23;;;13.53;;
4521;SDS011;2273;48.464;11.926;2023-05-16T12:03:55;18.30;;;14.80;;
4521;SDS011;2273;48.464;11.926;2023-05-16T12:06:23;18.77;;;14.80;;
4521;SDS011;2273;48.464;11.926;2023-05-16T12:08:49;16.03;;;12.80;;
4521;SDS011;2273;48.464;11.926;2023-05-16T12:11:16;17.53;;;14.80;;
4521;SDS011;2273;48.464;11.926;2023-05-16T12:13:41;17.33;;;15.13;;
4521;SDS011;2273;48.464;11.926;2023-05-16T12:16:07;19.70;;;13.77;;
4521;SDS011;2273;48.464;11.926;2023-05-16T12:18:32;14.93;;;12.47;;
4521;SDS011;2273;48.464;11.926;2023-05-16T12:20:58;16.67;;;12.47;;
4521;SDS011;2273;48.464;11.926;2023-05-16T12:23:23;16.90;;;13.43;;
4521;SDS011;2273;48.464;11.926;2023-05-16T12:25:50;19.40;;;14.63;;
4521;SDS011;2273;48.464;11.926;2023-05-16T12:28:19;18.63;;;13.20;;
4521;SDS011;2273;48.464;11.926;2023-05-16T12:30:45;20.20;;;14.40;;
4521;SDS011;2273;48.464;11.926;2023-05-16T12:33:13;17.90;;;12.10;;
4521;SDS011;2273;48.464;11.926;2023-05-16T12:35:40;12.83;;;8.40;;
4521;SDS011;2273;48.464;11.926;2023-05-16T12:38:06;40.47;;;7.50;;
4521;SDS011;2273;48.464;11.926;2023-05-16T12:40:35;59.83;;;7.60;;
4521;SDS011;2273;48.464;11.926;2023-05-16T12:43:01;50.33;;;6.60;;
4521;SDS011;2273;48.464;11.926;2023-05-16T12:45:26;18.43;;;6.13;;
4521;SDS011;2273;48.464;11.926;2023-05-16T12:47:52;16.03;;;6.07;;
4521;SDS011;2273;48.464;11.926;2023-05-16T12:50:17;10.20;;;7.30;;
4521;SDS011;2273;48.464;11.926;2023-05-16T12:52:50;11.07;;;7.77;;
4521;SDS011;2273;48.464;11.926;2023-05-16T12:55:16;21.47;;;9.33;;
4521;SDS011;2273;48.464;11.926;2023-05-16T12:57:43;13.50;;;7.87;;
4521;SDS011;2273;48.464;11.926;2023-05-16T13:00:10;24.43;;;8.97;;
4521;SDS011;2273;48.464;11.926;2023-05-16T13:02:36;26.17;;;7.93;;
4521;SDS011;2273;48.464;11.926;2023-05-16T13:05:02;12.73;;;8.13;;
4521;SDS011;2273;48.464;11.926;2023-05-16T13:07:28;12.73;;;7.43;;
4521;SDS011;2273;48.464;11.926;2023-05-16T13:09:54;11.27;;;7.30;;
4521;SDS011;2273;48.464;11.926;2023-05-16T13:12:20;9.33;;;7.77;;
4521;SDS011;2273;48.464;11.926;2023-05-16T13:14:46;15.20;;;9.30;;
4521;SDS011;2273;48.464;11.926;2023-05-16T13:17:11;10.50;;;8.10;;
4521;SDS011;2273;48.464;11.926;2023-05-16T13:19:37;11.27;;;7.97;;
4521;SDS011;2273;48.464;11.926;2023-05-16T13:22:02;12.03;;;8.30;;
4521;SDS011;2273;48.464;11.926;2023-05-16T13:24:28;12.73;;;8.00;;
4521;SDS011;2273;48.464;11.926;2023-05-16T13:26:53;12.10;;;8.70;;
4521;SDS011;2273;48.464;11.926;2023-05-16T13:29:19;14.40;;;8.60;;
4521;SDS011;2273;48.464;11.926;2023-05-16T13:31:44;12.50;;;8.80;;
4521;SDS011;2273;48.464;11.926;2023-05-16T13:34:09;10.67;;;8.17;;
4521;SDS011;2273;48.464;11.926;2023-05-16T13:36:35;14.50;;;9.27;;
4521;SDS011;2273;48.464;11.926;2023-05-16T13:39:00;11.07;;;9.37;;
4521;SDS011;2273;48.464;11.926;2023-05-16T13:41:26;10.77;;;8.80;;
4521;SDS011;2273;48.464;11.926;2023-05-16T13:43:51;11.17;;;8.50;;
4521;SDS011;2273;48.464;11.926;2023-05-16T13:46:17;8.30;;;7.23;;
4521;SDS011;2273;48.464;11.926;2023-05-16T13:48:42;9.63;;;7.37;;
4521;SDS011;2273;48.464;11.926;2023-05-16T13:51:08;31.93;;;7.33;;
4521;SDS011;2273;48.464;11.926;2023-05-16T13:53:35;10.90;;;9.00;;
4521;SDS011;2273;48.464;11.926;2023-05-16T13:56:00;9.70;;;7.50;;
4521;SDS011;2273;48.464;11.926;2023-05-16T13:58:26;11.20;;;9.73;;
4521;SDS011;2273;48.464;11.926;2023-05-16T14:00:51;13.60;;;9.57;;
4521;SDS011;2273;48.464;11.926;2023-05-16T14:03:17;10.80;;;8.13;;
4521;SDS011;2273;48.464;11.926;2023-05-16T14:05:42;10.00;;;8.07;;
4521;SDS011;2273;48.464;11.926;2023-05-16T14:08:08;11.60;;;7.77;;
4521;SDS011;2273;48.464;11.926;2023-05-16T14:10:33;9.20;;;7.63;;
4521;SDS011;2273;48.464;11.926;2023-05-16T14:12:59;9.80;;;7.70;;
4521;SDS011;2273;48.464;11.926;2023-05-16T14:15:24;11.80;;;7.93;;
4521;SDS011;2273;48.464;11.926;2023-05-16T14:17:49;11.37;;;7.90;;
4521;SDS011;2273;48.464;11.926;2023-05-16T14:20:15;9.47;;;7.57;;
4521;SDS011;2273;48.464;11.926;2023-05-16T14:22:41;11.30;;;9.40;;
4521;SDS011;2273;48.464;11.926;2023-05-16T14:25:06;9.30;;;7.70;;
4521;SDS011;2273;48.464;11.926;2023-05-16T14:27:32;8.97;;;7.30;;
4521;SDS011;2273;48.464;11.926;2023-05-16T14:29:57;10.63;;;7.60;;
4521;SDS011;2273;48.464;11.926;2023-05-16T14:32:23;12.80;;;9.30;;
4521;SDS011;2273;48.464;11.926;2023-05-16T14:34:49;11.60;;;8.10;;
4521;SDS011;2273;48.464;11.926;2023-05-16T14:37:14;13.03;;;8.90;;
4521;SDS011;2273;48.464;11.926;2023-05-16T14:39:40;17.20;;;9.87;;
4521;SDS011;2273;48.464;11.926;2023-05-16T14:42:08;19.00;;;12.23;;
4521;SDS011;2273;48.464;11.926;2023-05-16T14:44:33;11.43;;;9.30;;
4521;SDS011;2273;48.464;11.926;2023-05-16T14:46:59;20.27;;;11.97;;
4521;SDS011;2273;48.464;11.926;2023-05-16T14:49:24;13.17;;;10.03;;
4521;SDS011;2273;48.464;11.926;2023-05-16T14:51:49;25.57;;;12.90;;
4521;SDS011;2273;48.464;11.926;2023-05-16T14:54:15;13.33;;;9.37;;
4521;SDS011;2273;48.464;11.926;2023-05-16T14:56:41;42.60;;;20.20;;
4521;SDS011;2273;48.464;11.926;2023-05-16T14:59:06;26.87;;;13.40;;
4521;SDS011;2273;48.464;11.926;2023-05-16T15:01:32;17.70;;;11.93;;
4521;SDS011;2273;48.464;11.926;2023-05-16T15:03:57;17.43;;;10.00;;
4521;SDS011;2273;48.464;11.926;2023-05-16T15:06:23;12.90;;;9.90;;
4521;SDS011;2273;48.464;11.926;2023-05-16T15:08:48;14.50;;;9.60;;
4521;SDS011;2273;48.464;11.926;2023-05-16T15:11:14;13.53;;;10.27;;
4521;SDS011;2273;48.464;11.926;2023-05-16T15:13:40;14.50;;;11.77;;